Time;durP1;ratioP1;P1;durP2;ratioP2;P2;SDS_P1;SDS_P2;PMS_P1;PMS_P2;Temp;Humidity;BMP_temperature;BMP_pressure;BME280_temperature;BME280_humidity;BME280_pressure;Samples;Min_cycle;Max_cycle;Signal;HPM_P1;HPM_P2
2022/12/21 00:01:15;;;;;;;18.60;13.27;;;16.30;67.10;;;18.25;35.29;98877.56;5020448;28;20123;-73
2022/12/21 00:03:43;;;;;;;21.17;12.52;;;16.20;67.10;;;18.25;35.19;98872.06;5069898;28;20098;-73
2022/12/21 00:06:09;;;;;;;21.42;12.82;;;16.20;67.20;;;18.26;35.39;98879.16;5040506;28;20507;-73
2022/12/21 00:08:44;;;;;;;23.15;14.27;;;16.20;67.60;;;18.30;35.41;98895.81;5044977;28;20057;-72
2022/12/21 00:11:10;;;;;;;22.83;13.13;;;16.20;67.70;;;18.28;35.54;98887.09;5042173;28;20411;-72
2022/12/21 00:13:37;;;;;;;18.70;12.05;;;16.30;67.40;;;18.31;35.18;98881.75;5058846;28;20476;-72
2022/12/21 00:16:09;;;;;;;20.65;13.95;;;16.30;67.30;;;18.28;35.20;98871.41;5022379;28;20127;-72
2022/12/21 00:18:35;;;;;;;20.27;14.05;;;16.20;67.40;;;18.30;35.29;98874.66;5035445;28;20048;-72
2022/12/21 00:21:13;;;;;;;20.52;13.38;;;16.20;67.60;;;18.30;35.29;98874.66;5038564;28;20127;-72
2022/12/21 00:23:41;;;;;;;21.80;13.65;;;16.20;67.40;;;18.32;35.57;98866.06;5043082;28;20491;-72
2022/12/21 00:26:07;;;;;;;21.00;13.68;;;16.20;67.60;;;18.31;35.53;98861.72;5024295;28;20556;-72
2022/12/21 00:28:33;;;;;;;21.00;14.27;;;16.20;67.70;;;18.29;35.24;98869.47;5024398;28;20041;-73
2022/12/21 00:31:16;;;;;;;22.38;13.45;;;16.30;67.40;;;18.22;35.30;98878.22;5027908;28;20053;-73
2022/12/21 00:33:42;;;;;;;21.65;13.32;;;16.30;67.40;;;18.29;35.56;98889.50;5050630;28;20071;-72
2022/12/21 00:36:14;;;;;;;24.17;13.95;;;16.20;67.20;;;18.30;35.46;98884.84;5028810;28;20036;-72
2022/12/21 00:38:40;;;;;;;20.70;14.15;;;16.20;67.40;;;18.28;35.50;98893.38;5028286;28;20041;-72
2022/12/21 00:41:08;;;;;;;22.92;13.15;;;16.30;67.60;;;18.31;35.82;98891.94;5022334;28;20051;-72
2022/12/21 00:43:36;;;;;;;18.88;13.98;;;16.30;67.90;;;18.29;35.39;98891.44;5005582;28;20085;-73
2022/12/21 00:46:03;;;;;;;25.60;15.40;;;16.30;67.50;;;18.28;35.40;98887.09;5014888;28;20129;-72
2022/12/21 00:48:29;;;;;;;20.25;13.57;;;16.20;67.60;;;18.33;35.39;98892.41;5003883;28;20059;-72
2022/12/21 00:51:07;;;;;;;22.00;13.90;;;16.10;67.60;;;18.31;35.19;98878.19;5020574;28;20417;-73
2022/12/21 00:53:33;;;;;;;22.98;15.48;;;16.20;67.40;;;18.30;35.40;98884.84;5039348;28;20055;-72
2022/12/21 00:56:01;;;;;;;19.88;14.10;;;16.30;67.50;;;18.27;35.69;98879.97;5054279;28;20051;-72
2022/12/21 00:58:28;;;;;;;23.88;15.73;;;16.20;67.60;;;18.30;35.68;98882.88;5022624;28;20047;-72
2022/12/21 01:00:55;;;;;;;24.00;12.50;;;16.20;67.60;;;18.30;35.37;98873.84;5057464;28;20052;-72
2022/12/21 01:03:22;;;;;;;26.08;14.35;;;16.20;67.40;;;18.25;35.42;98880.31;5043301;28;20040;-72
2022/12/21 01:05:48;;;;;;;19.85;13.77;;;16.20;67.50;;;18.31;35.06;98883.69;5026412;28;20066;-72
2022/12/21 01:08:15;;;;;;;24.77;15.50;;;16.20;68.20;;;18.29;35.48;98880.44;5029364;28;20041;-72
2022/12/21 01:10:41;;;;;;;29.45;15.77;;;16.20;68.20;;;18.30;35.28;98874.66;5033977;28;20320;-72
2022/12/21 01:13:07;;;;;;;23.73;15.75;;;16.10;68.00;;;18.25;35.57;98869.31;5015146;28;20040;-72
2022/12/21 01:15:33;;;;;;;23.60;15.07;;;16.20;67.80;;;18.28;35.47;98865.91;5033804;28;20427;-72
2022/12/21 01:18:00;;;;;;;21.25;14.50;;;16.30;67.50;;;18.26;35.22;98859.13;5053748;28;20037;-72
2022/12/21 01:20:26;;;;;;;21.63;14.30;;;16.20;67.40;;;18.28;35.38;98856.88;5043910;28;20044;-73
2022/12/21 01:22:52;;;;;;;24.30;14.50;;;16.20;67.30;;;18.26;35.46;98850.91;5045361;28;20051;-72
2022/12/21 01:25:18;;;;;;;21.25;14.48;;;16.20;67.40;;;18.28;35.34;98845.91;5058481;28;20037;-72
2022/12/21 01:27:44;;;;;;;24.98;15.77;;;16.10;67.80;;;18.27;35.68;98836.03;5069088;28;20044;-73
2022/12/21 01:30:10;;;;;;;24.60;15.60;;;16.10;67.90;;;18.27;35.59;98825.88;5032129;28;20050;-73
2022/12/21 01:32:37;;;;;;;22.45;15.30;;;16.10;68.20;;;18.27;35.40;98817.63;5056880;28;20067;-73
2022/12/21 01:35:04;;;;;;;22.27;15.25;;;16.10;67.90;;;18.26;35.46;98826.19;5038995;28;20129;-72
2022/12/21 01:37:30;;;;;;;24.63;14.98;;;16.20;67.50;;;18.27;35.55;98816.81;5053440;28;20093;-73
2022/12/21 01:39:56;;;;;;;21.38;14.38;;;16.20;67.60;;;18.27;35.03;98825.88;5047273;28;20160;-72
2022/12/21 01:42:22;;;;;;;22.67;14.13;;;16.20;67.40;;;18.24;35.62;98823.75;5062958;28;20044;-73
2022/12/21 01:45:03;;;;;;;23.77;14.93;;;16.30;67.60;;;18.26;35.39;98821.50;5036594;28;20369;-73
2022/12/21 01:47:41;;;;;;;21.30;14.43;;;16.30;67.50;;;18.28;35.36;98832.97;5052602;28;20037;-72
2022/12/21 01:50:26;;;;;;;20.77;13.75;;;16.30;67.40;;;18.23;35.58;98822.16;5011287;28;20048;-72
2022/12/21 01:52:53;;;;;;;23.90;15.25;;;16.20;67.50;;;18.23;35.55;98811.16;5054315;28;20078;-72
2022/12/21 01:55:18;;;;;;;24.80;15.63;;;16.20;67.60;;;18.25;35.35;98799.88;5039420;28;20614;-72
2022/12/21 01:57:45;;;;;;;24.13;16.27;;;16.20;67.40;;;18.27;35.56;98806.66;5027569;28;20037;-72
2022/12/21 02:00:11;;;;;;;27.33;16.02;;;16.10;67.60;;;18.25;35.61;98795.19;5017457;28;20043;-72
2022/12/21 02:02:48;;;;;;;25.15;15.63;;;16.20;67.90;;;18.25;35.60;98777.91;5052860;28;20051;-73
2022/12/21 02:05:41;;;;;;;24.83;16.05;;;16.20;68.00;;;18.24;35.57;98790.81;5052988;28;20133;-72
2022/12/21 02:08:08;;;;;;;26.25;15.25;;;16.20;67.40;;;18.20;35.51;98803.59;5042650;28;20032;-72
2022/12/21 02:10:33;;;;;;;21.13;15.13;;;16.20;67.40;;;18.20;35.38;98806.34;5040267;28;20093;-74
2022/12/21 02:13:03;;;;;;;26.27;15.38;;;16.20;67.40;;;18.21;35.21;98805.19;5037685;28;20087;-72
2022/12/21 02:15:58;;;;;;;22.60;14.90;;;16.10;67.40;;;18.24;35.38;98799.03;5035667;28;20041;-73
2022/12/21 02:18:27;;;;;;;25.13;15.70;;;16.20;68.00;;;18.26;35.88;98780.31;5051266;28;20053;-72
2022/12/21 02:21:05;;;;;;;25.70;16.00;;;16.20;67.80;;;18.23;35.42;98791.94;5053884;28;20045;-72
2022/12/21 02:24:35;;;;;;;25.75;16.38;;;16.30;67.40;;;18.20;35.43;98801.66;5059232;28;20045;-72
2022/12/21 02:27:39;;;;;;;25.02;15.20;;;16.30;67.20;;;18.19;35.29;98799.22;5027961;28;20075;-72
2022/12/21 02:30:21;;;;;;;24.73;16.02;;;16.20;67.40;;;18.18;35.67;98794.88;5069378;28;20040;-72
2022/12/21 02:33:05;;;;;;;21.75;15.00;;;16.10;68.20;;;18.20;35.69;98787.91;5068734;28;20036;-72
2022/12/21 02:35:59;;;;;;;26.85;16.70;;;16.20;67.80;;;18.19;35.63;98793.72;5054807;28;20055;-72
2022/12/21 02:39:02;;;;;;;24.23;15.90;;;16.20;67.80;;;18.21;35.22;98777.72;5022478;28;20123;-73
2022/12/21 02:42:02;;;;;;;23.80;15.43;;;16.20;67.40;;;18.17;35.33;98796.81;5038021;28;20052;-72
2022/12/21 02:44:42;;;;;;;23.90;15.60;;;16.10;67.40;;;18.12;35.53;98769.53;5056429;28;20502;-73
2022/12/21 02:47:24;;;;;;;25.40;17.13;;;16.10;67.40;;;18.12;35.69;98764.03;5044716;28;20507;-73
2022/12/21 02:50:12;;;;;;;27.38;16.92;;;16.20;67.80;;;18.16;35.62;98775.97;5037513;28;20127;-73
2022/12/21 02:52:53;;;;;;;22.73;15.75;;;16.20;67.90;;;18.21;35.33;98785.97;5039720;28;20040;-72
2022/12/21 02:55:19;;;;;;;19.77;15.02;;;16.20;67.60;;;18.16;35.35;98784.19;5056865;28;20044;-73
2022/12/21 02:57:45;;;;;;;28.65;15.57;;;16.20;67.50;;;18.11;35.63;98773.38;5046021;28;20423;-73
2022/12/21 03:00:18;;;;;;;25.42;15.77;;;16.10;67.30;;;18.07;35.29;98766.94;5041507;28;20036;-73
2022/12/21 03:06:02;;;;;;;31.38;17.65;;;16.20;67.70;;;18.13;35.81;98753.84;5070005;28;20064;-72
2022/12/21 03:08:40;;;;;;;23.35;16.27;;;16.20;67.70;;;18.14;35.52;98767.25;5070626;28;20052;-73
2022/12/21 03:11:06;;;;;;;26.25;16.77;;;16.20;67.40;;;18.16;35.55;98780.66;5070702;28;20048;-72
2022/12/21 03:13:35;;;;;;;26.80;16.90;;;16.20;67.40;;;18.16;35.64;98778.69;5016910;28;20071;-72
2022/12/21 03:16:18;;;;;;;26.08;16.25;;;16.10;67.60;;;18.10;35.51;98781.97;5040801;28;20040;-72
2022/12/21 03:19:22;;;;;;;29.80;17.23;;;16.10;67.40;;;18.11;35.56;98772.56;5060036;28;20056;-73
2022/12/21 03:21:53;;;;;;;24.08;15.95;;;16.00;67.80;;;18.15;35.52;98765.31;5062607;28;20037;-73
2022/12/21 03:24:32;;;;;;;27.73;16.58;;;16.10;67.70;;;18.17;35.68;98785.03;5043392;28;20067;-72
2022/12/21 03:27:19;;;;;;;26.42;17.02;;;16.20;67.50;;;18.12;35.67;98782.44;5037502;28;20032;-73
2022/12/21 03:30:14;;;;;;;28.85;17.52;;;16.20;67.50;;;18.07;35.54;98788.91;5041329;28;20095;-73
2022/12/21 03:32:52;;;;;;;21.63;16.75;;;16.20;67.30;;;18.06;35.60;98787.28;5054284;28;20161;-72
2022/12/21 03:35:33;;;;;;;28.17;16.80;;;16.10;67.30;;;18.15;35.41;98790.03;5043670;28;20052;-72
2022/12/21 03:38:01;;;;;;;24.65;16.15;;;16.10;67.50;;;18.13;35.36;98786.78;5026782;28;20532;-72
2022/12/21 03:40:30;;;;;;;21.85;15.35;;;16.20;67.60;;;18.10;35.66;98777.28;5027113;28;20400;-73
2022/12/21 03:43:10;;;;;;;24.95;17.45;;;16.20;67.50;;;18.08;35.45;98775.97;5025062;28;20068;-73
2022/12/21 03:45:42;;;;;;;26.35;16.42;;;16.10;67.60;;;18.11;35.36;98783.56;5037277;28;20110;-73
2022/12/21 03:48:14;;;;;;;29.50;17.23;;;16.00;67.50;;;18.07;35.48;98777.91;5022310;28;20071;-73
2022/12/21 03:50:43;;;;;;;22.50;16.35;;;16.10;67.30;;;18.09;35.34;98783.06;5023736;28;20056;-73
2022/12/21 03:53:44;;;;;;;28.08;17.88;;;16.10;67.50;;;18.11;35.39;98784.34;5039851;28;20435;-72
2022/12/21 03:56:16;;;;;;;28.00;18.20;;;16.10;67.60;;;18.09;35.54;98785.81;5030798;28;20048;-72
2022/12/21 03:58:42;;;;;;;28.00;17.63;;;16.20;67.60;;;18.07;35.25;98796.34;5037169;28;20044;-72
2022/12/21 04:01:20;;;;;;;23.90;16.52;;;16.10;66.80;;;18.09;34.97;98780.31;5055237;28;20037;-72
2022/12/21 04:03:50;;;;;;;29.20;18.30;;;16.10;66.80;;;18.05;35.17;98784.88;5054198;28;20043;-72
2022/12/21 04:06:20;;;;;;;25.13;17.02;;;16.10;66.60;;;18.07;34.95;98782.59;5038930;28;20045;-72
2022/12/21 04:08:47;;;;;;;25.63;16.67;;;16.10;66.50;;;18.07;35.33;98777.13;5024479;28;20048;-72
2022/12/21 04:13:59;;;;;;;24.25;16.60;;;16.10;66.90;;;18.00;35.26;98772.91;5043578;28;20036;-72
2022/12/21 04:16:26;;;;;;;27.73;18.10;;;16.20;66.60;;;18.01;34.78;98773.72;5051162;28;20059;-72
2022/12/21 04:21:37;;;;;;;29.42;18.92;;;16.00;66.40;;;17.96;34.75;98769.22;5043830;28;20493;-71
2022/12/21 04:29:33;;;;;;;27.67;17.48;;;16.00;66.80;;;17.97;35.28;98776.31;5044392;28;20052;-71
2022/12/21 04:31:59;;;;;;;26.17;18.55;;;16.10;66.60;;;17.97;34.85;98779.06;5022322;28;20037;-72
2022/12/21 04:34:25;;;;;;;30.73;18.27;;;16.10;66.00;;;17.98;34.51;98796.31;5041361;28;20047;-72
2022/12/21 04:39:37;;;;;;;32.95;19.30;;;16.00;65.60;;;17.92;34.84;98790.19;5069040;28;20047;-72
2022/12/21 04:42:03;;;;;;;27.70;18.98;;;16.00;66.20;;;17.92;35.43;98795.69;5038043;28;20037;-72
2022/12/21 04:44:29;;;;;;;32.35;20.65;;;16.00;66.50;;;17.94;35.55;98803.59;5052966;28;20040;-72
2022/12/21 04:46:55;;;;;;;27.38;18.63;;;16.00;66.80;;;17.91;35.10;98791.31;5038967;28;20037;-72
2022/12/21 04:49:21;;;;;;;29.23;18.83;;;16.00;66.20;;;17.91;34.90;98787.75;5068330;28;20062;-72
2022/12/21 04:51:47;;;;;;;29.38;18.90;;;15.90;66.00;;;17.93;34.64;98785.50;5057103;28;20040;-72
2022/12/21 04:54:13;;;;;;;33.83;19.45;;;15.90;65.80;;;17.92;34.67;98784.69;5068848;28;20043;-72
2022/12/21 04:56:39;;;;;;;31.80;19.42;;;15.90;65.90;;;17.87;34.85;98790.34;5037004;28;20050;-72
2022/12/21 04:59:05;;;;;;;28.08;19.05;;;15.90;66.40;;;17.90;35.08;98795.19;5055522;28;20487;-72
2022/12/21 05:01:31;;;;;;;28.80;18.60;;;16.00;66.40;;;17.91;35.38;98802.31;5038802;28;20040;-72
2022/12/21 05:03:58;;;;;;;29.83;18.85;;;16.00;66.60;;;17.86;34.93;98788.75;5054698;28;20036;-72
2022/12/21 05:06:24;;;;;;;29.85;18.05;;;15.90;65.90;;;17.87;34.53;98797.78;5036203;28;20048;-72
2022/12/21 05:08:50;;;;;;;30.63;19.58;;;15.80;65.90;;;17.79;34.47;98791.94;5058365;28;20055;-72
2022/12/21 05:11:19;;;;;;;29.90;20.10;;;15.80;65.80;;;17.86;34.61;98793.41;5056371;28;20455;-72
2022/12/21 05:13:46;;;;;;;33.38;20.23;;;15.80;65.60;;;17.79;34.81;98791.94;5021297;28;20043;-72
2022/12/21 05:16:15;;;;;;;30.17;19.42;;;15.90;66.30;;;17.81;34.76;98791.66;5058414;28;20067;-72
2022/12/21 05:18:41;;;;;;;26.92;19.50;;;15.90;67.00;;;17.86;34.90;98787.91;5060300;28;20407;-72
2022/12/21 05:21:08;;;;;;;30.05;19.77;;;16.00;65.90;;;17.86;34.47;98782.44;5053685;28;20530;-72
2022/12/21 05:23:34;;;;;;;30.23;19.92;;;15.90;65.50;;;17.87;34.47;98776.63;5036579;28;20052;-72
2022/12/21 05:26:02;;;;;;;28.05;19.67;;;15.80;65.40;;;17.82;34.56;98786.97;5056340;28;20082;-72
2022/12/21 05:28:28;;;;;;;33.63;20.80;;;15.80;65.60;;;17.81;34.48;98788.06;5038982;28;20511;-72
2022/12/21 05:30:54;;;;;;;32.22;19.88;;;15.80;65.90;;;17.79;35.08;98791.94;5056997;28;20510;-72
2022/12/21 05:33:20;;;;;;;31.85;19.77;;;15.80;66.20;;;17.78;35.24;98801.28;5055391;28;20044;-72
2022/12/21 05:35:46;;;;;;;29.73;19.00;;;15.90;66.10;;;17.77;34.77;98796.13;5057405;28;20043;-72
2022/12/21 05:38:12;;;;;;;29.25;19.73;;;15.90;65.70;;;17.71;34.79;98800.97;5037857;28;20044;-72
2022/12/21 05:40:38;;;;;;;32.00;20.52;;;15.80;65.70;;;17.69;34.70;98788.69;5055988;28;20036;-72
2022/12/21 05:43:08;;;;;;;27.77;19.33;;;15.70;65.40;;;17.76;34.23;98800.81;5053592;28;20541;-72
2022/12/21 05:46:28;;;;;;;;;;;;;;;;;;;;;
2022/12/21 05:49:12;;;;;;;33.65;21.25;;;15.70;66.10;;;17.71;35.15;98789.19;4909306;28;20060;-72
2022/12/21 05:51:38;;;;;;;30.83;20.70;;;15.70;66.40;;;17.63;35.09;98789.97;5048926;28;20048;-71
2022/12/21 05:54:04;;;;;;;32.33;19.92;;;15.80;66.20;;;17.70;34.73;98791.09;5056281;28;20048;-72
2022/12/21 05:56:35;;;;;;;30.50;19.10;;;15.70;66.10;;;17.68;34.74;98792.53;5043270;28;20097;-71
2022/12/21 05:59:00;;;;;;;31.92;18.67;;;15.70;65.80;;;17.65;34.89;98788.50;5035225;28;20094;-70
2022/12/21 06:01:27;;;;;;;30.58;19.85;;;15.70;66.00;;;17.64;34.95;98792.38;5058911;28;20043;-71
2022/12/21 06:03:52;;;;;;;30.42;19.90;;;15.70;66.10;;;17.68;34.98;98798.03;5062866;28;20040;-70
2022/12/21 06:06:19;;;;;;;30.52;19.55;;;15.70;66.50;;;17.72;35.18;98810.00;5065748;28;20041;-72
2022/12/21 06:08:45;;;;;;;31.38;19.60;;;15.70;66.40;;;17.66;35.24;98806.59;5068432;28;20075;-72
2022/12/21 06:11:13;;;;;;;30.52;19.77;;;15.70;66.30;;;17.69;34.79;98799.66;5036989;28;20399;-73
2022/12/21 06:13:39;;;;;;;32.17;18.98;;;15.70;66.30;;;17.67;35.09;98799.97;5054596;28;20041;-73
2022/12/21 06:16:16;;;;;;;24.75;18.77;;;15.60;66.10;;;17.68;34.68;98782.41;5041192;28;20041;-73
2022/12/21 06:18:42;;;;;;;34.05;19.77;;;15.60;66.20;;;17.72;34.80;98783.34;5017753;28;20451;-73
2022/12/21 06:21:09;;;;;;;28.58;19.17;;;15.60;66.40;;;17.69;35.05;98785.94;5043676;28;20040;-73
2022/12/21 06:23:35;;;;;;;31.23;19.17;;;15.60;66.60;;;17.70;35.27;98785.59;5023456;28;20101;-71
2022/12/21 06:26:03;;;;;;;28.45;19.60;;;15.60;66.70;;;17.73;34.76;98790.47;5001997;28;20099;-71
2022/12/21 06:28:29;;;;;;;31.23;18.77;;;15.60;66.10;;;17.72;34.86;98788.84;5003572;28;20045;-71
2022/12/21 06:31:08;;;;;;;30.40;19.75;;;15.60;66.20;;;17.71;35.00;98783.69;5051124;28;20042;-71
2022/12/21 06:33:34;;;;;;;32.40;20.58;;;15.60;66.30;;;17.72;34.76;98777.88;5039958;28;20426;-71
2022/12/21 06:36:00;;;;;;;31.48;19.38;;;15.70;66.10;;;17.76;34.96;98780.81;5054496;28;20118;-71
2022/12/21 06:38:26;;;;;;;30.02;18.58;;;15.80;66.30;;;17.73;35.26;98778.69;5055212;28;20036;-71
2022/12/21 06:41:00;;;;;;;29.15;18.45;;;15.80;66.60;;;17.75;35.18;98768.19;5051251;28;20071;-71
2022/12/21 06:43:28;;;;;;;30.77;19.75;;;15.80;66.20;;;17.77;35.16;98757.72;5021273;28;20068;-71
2022/12/21 06:46:00;;;;;;;32.70;20.58;;;15.90;66.30;;;17.81;34.99;98766.13;5026779;28;20455;-71
2022/12/21 06:48:26;;;;;;;33.38;20.23;;;15.80;65.90;;;17.78;34.76;98765.63;5021624;28;20044;-71
2022/12/21 06:50:54;;;;;;;30.23;20.73;;;15.80;65.90;;;17.82;34.99;98759.53;5035489;28;20426;-71
2022/12/21 06:53:21;;;;;;;34.53;21.13;;;15.80;66.20;;;17.78;35.45;98762.06;5037506;28;20080;-71
2022/12/21 06:55:48;;;;;;;33.28;20.25;;;15.80;66.60;;;17.86;35.34;98766.78;5032454;28;20045;-71
2022/12/21 06:58:14;;;;;;;32.38;19.80;;;15.70;66.80;;;17.86;34.91;98761.31;5056619;28;20047;-71
2022/12/21 07:00:40;;;;;;;30.90;19.50;;;15.60;66.80;;;17.88;34.86;98771.94;5052870;28;20433;-71
2022/12/21 07:03:06;;;;;;;29.70;19.15;;;15.70;66.50;;;17.90;34.98;98767.75;5022650;28;20048;-71
2022/12/21 07:05:33;;;;;;;33.80;20.63;;;15.70;67.30;;;17.86;34.66;98763.22;5015269;28;20105;-71
2022/12/21 07:08:00;;;;;;;26.13;18.25;;;15.80;66.20;;;17.88;34.78;98770.00;5046162;28;20036;-71
2022/12/21 07:10:26;;;;;;;32.92;19.90;;;15.70;66.50;;;17.88;34.82;98771.94;5038795;28;20050;-71
2022/12/21 07:12:52;;;;;;;32.10;19.77;;;15.70;67.00;;;17.91;35.11;98771.28;5067802;28;20450;-71
2022/12/21 07:15:18;;;;;;;30.35;18.80;;;15.70;66.90;;;17.96;34.81;98766.47;5052486;28;20040;-71
2022/12/21 07:17:44;;;;;;;28.30;19.23;;;15.60;66.60;;;17.95;34.64;98764.03;5051843;28;20051;-71
2022/12/21 07:20:13;;;;;;;26.45;19.13;;;15.60;66.70;;;17.96;34.81;98771.13;5065005;28;20043;-71
2022/12/21 07:22:40;;;;;;;30.48;20.58;;;15.60;66.50;;;18.00;34.66;98772.91;5050661;28;20045;-71
2022/12/21 07:25:06;;;;;;;31.88;19.70;;;15.60;66.80;;;18.04;34.65;98764.03;5032621;28;20573;-71
2022/12/21 07:27:32;;;;;;;30.00;19.48;;;15.60;67.30;;;18.04;35.16;98753.88;5054210;28;20057;-71
2022/12/21 07:29:58;;;;;;;32.08;20.02;;;15.60;67.60;;;18.13;34.40;98746.41;5051304;28;20483;-71
2022/12/21 07:32:24;;;;;;;32.40;21.30;;;15.60;67.00;;;18.12;34.40;98738.53;5031240;28;20037;-71
2022/12/21 07:34:50;;;;;;;30.08;20.17;;;15.70;66.80;;;18.15;34.31;98740.63;5046088;28;20485;-71
2022/12/21 07:37:16;;;;;;;31.70;19.33;;;15.70;66.80;;;18.15;34.27;98740.63;5032510;28;20055;-71
2022/12/21 07:39:42;;;;;;;28.48;19.85;;;15.80;66.50;;;18.17;34.45;98747.41;5057499;28;20044;-71
2022/12/21 07:42:08;;;;;;;31.13;20.08;;;15.80;66.90;;;18.17;34.56;98743.84;5051577;28;20041;-71
2022/12/21 07:44:34;;;;;;;30.02;19.95;;;15.80;67.20;;;18.18;34.71;98738.00;5069206;28;20066;-71
2022/12/21 07:47:00;;;;;;;29.98;19.70;;;15.80;67.30;;;18.18;34.72;98731.72;5055644;28;20045;-71
2022/12/21 07:49:27;;;;;;;34.83;20.05;;;15.80;66.90;;;18.22;34.71;98740.94;5053593;28;20044;-71
2022/12/21 07:51:53;;;;;;;31.85;19.90;;;15.70;66.90;;;18.20;34.52;98752.22;5037864;28;20040;-71
2022/12/21 07:54:19;;;;;;;29.65;19.58;;;15.80;66.70;;;18.22;34.22;98747.22;5067651;28;20078;-72
2022/12/21 07:56:47;;;;;;;27.67;18.63;;;15.80;66.40;;;18.23;34.58;98732.34;5052658;28;20571;-72
2022/12/21 07:59:13;;;;;;;30.70;20.35;;;15.80;66.90;;;18.20;34.54;98721.22;5066599;28;20049;-72
2022/12/21 08:01:39;;;;;;;28.52;19.45;;;15.80;67.20;;;18.25;34.64;98729.28;5053117;28;20052;-72
2022/12/21 08:04:07;;;;;;;33.88;20.90;;;15.90;67.00;;;18.32;34.44;98737.00;5025192;28;20040;-72
2022/12/21 08:06:34;;;;;;;30.15;18.70;;;15.90;66.80;;;18.25;34.43;98729.28;5011286;28;1135915;-72
2022/12/21 08:09:00;;;;;;;31.70;20.70;;;15.90;66.50;;;18.31;34.25;98721.69;5051343;28;20090;-72
2022/12/21 08:11:28;;;;;;;34.05;20.40;;;15.90;66.30;;;18.30;34.40;98725.56;5037052;28;20052;-71
2022/12/21 08:13:55;;;;;;;30.58;19.67;;;16.00;66.60;;;18.33;34.54;98728.47;5039125;28;20049;-71
2022/12/21 08:16:21;;;;;;;29.80;20.52;;;16.00;66.60;;;18.33;34.60;98742.19;5051784;28;20478;-71
2022/12/21 08:18:48;;;;;;;34.00;20.13;;;16.00;66.80;;;18.35;34.39;98745.41;5055662;28;20328;-71
2022/12/21 08:21:15;;;;;;;31.42;20.95;;;16.00;66.50;;;18.36;34.43;98751.72;5027085;28;20079;-71
2022/12/21 08:23:42;;;;;;;31.20;19.48;;;16.00;66.40;;;18.38;34.24;98738.47;5054214;28;20425;-71
2022/12/21 08:26:10;;;;;;;28.73;19.17;;;16.10;66.50;;;18.39;33.99;98735.41;5017709;28;20434;-71
2022/12/21 08:28:37;;;;;;;31.20;20.73;;;16.10;66.10;;;18.38;34.31;98730.22;5013624;28;20048;-71
2022/12/21 08:31:09;;;;;;;32.03;20.30;;;16.10;66.50;;;18.41;34.63;98729.56;5027773;28;20532;-71
2022/12/21 08:33:35;;;;;;;33.20;20.20;;;16.10;66.60;;;18.45;34.51;98727.78;5006531;28;20049;-71
2022/12/21 08:36:01;;;;;;;34.85;21.52;;;16.10;66.50;;;18.43;34.28;98724.56;5031467;28;20502;-71
2022/12/21 08:38:27;;;;;;;33.08;22.10;;;16.10;66.50;;;18.44;34.37;98726.16;5013057;28;20041;-71
2022/12/21 08:40:53;;;;;;;32.28;21.20;;;16.20;66.20;;;18.45;34.08;98727.78;5053986;28;20064;-71
2022/12/21 08:43:19;;;;;;;31.77;21.42;;;16.20;66.00;;;18.45;34.27;98733.28;5064380;28;20037;-71
2022/12/21 08:45:48;;;;;;;31.77;21.38;;;16.30;65.80;;;18.46;34.40;98734.09;5028687;28;20045;-71
2022/12/21 08:48:14;;;;;;;29.02;20.00;;;16.20;66.10;;;18.50;34.36;98727.63;5051072;28;20037;-71
2022/12/21 08:50:40;;;;;;;28.95;20.65;;;16.30;66.20;;;18.51;34.22;98714.69;5039615;28;20422;-71
2022/12/21 08:53:07;;;;;;;33.83;22.05;;;16.30;66.10;;;18.54;34.28;98714.03;5039378;28;20041;-71
2022/12/21 08:55:33;;;;;;;30.42;21.40;;;16.30;65.90;;;18.51;34.16;98722.94;5052989;28;20059;-71
2022/12/21 08:57:59;;;;;;;29.30;19.75;;;16.40;65.80;;;18.51;34.16;98714.69;5052021;28;20044;-71
2022/12/21 09:00:28;;;;;;;27.83;20.00;;;16.40;66.30;;;18.56;34.01;98718.06;5050014;28;20044;-71
2022/12/21 09:02:55;;;;;;;31.10;22.58;;;16.40;65.50;;;18.55;34.33;98710.16;5040042;28;20040;-71
2022/12/21 09:05:21;;;;;;;30.60;20.90;;;16.40;65.90;;;18.55;34.28;98696.44;5031574;28;20052;-71
2022/12/21 09:07:47;;;;;;;32.47;21.02;;;16.40;66.10;;;18.51;34.05;98693.50;5065715;28;20097;-71
2022/12/21 09:10:13;;;;;;;34.72;20.48;;;16.30;65.80;;;18.55;34.13;98699.19;5037131;28;20052;-71
2022/12/21 09:12:39;;;;;;;35.22;22.10;;;16.40;65.60;;;18.56;34.09;98701.56;5066094;28;20041;-71
2022/12/21 09:15:06;;;;;;;38.38;21.98;;;16.40;65.60;;;18.57;34.04;98710.63;5040113;28;20040;-71
2022/12/21 09:17:32;;;;;;;31.13;20.83;;;16.50;65.40;;;18.57;34.14;98703.19;5064662;28;20396;-71
2022/12/21 09:19:58;;;;;;;27.85;20.48;;;16.50;65.60;;;18.60;34.12;98704.47;5067263;28;20055;-71
2022/12/21 09:22:25;;;;;;;29.65;20.90;;;16.50;65.90;;;18.58;34.17;98696.56;5054823;28;20419;-71
2022/12/21 09:24:51;;;;;;;33.10;20.33;;;16.50;65.80;;;18.57;34.28;98702.38;5049396;28;20052;-71
2022/12/21 09:27:17;;;;;;;33.20;21.90;;;16.50;65.40;;;18.56;33.95;98704.31;5034713;28;20044;-71
2022/12/21 09:29:44;;;;;;;30.13;21.98;;;16.60;65.20;;;18.56;34.00;98696.06;5051454;28;20086;-71
2022/12/21 09:32:11;;;;;;;30.65;20.40;;;16.70;65.00;;;18.59;34.00;98700.09;5052234;28;20364;-71
2022/12/21 09:34:37;;;;;;;34.95;21.63;;;16.60;65.10;;;18.59;34.26;98711.09;5051998;28;20040;-71
2022/12/21 09:37:03;;;;;;;31.67;20.52;;;16.60;65.50;;;18.56;34.21;98706.25;5053367;28;20045;-71
2022/12/21 09:39:29;;;;;;;29.40;20.52;;;16.60;65.70;;;18.61;34.14;98701.41;5016096;28;20044;-71
2022/12/21 09:42:18;;;;;;;33.55;22.05;;;16.60;65.60;;;18.57;34.15;98697.72;5050589;28;20407;-71
2022/12/21 09:45:12;;;;;;;32.53;20.88;;;16.50;65.30;;;18.55;34.10;98682.69;5065053;28;20554;-71
2022/12/21 09:47:58;;;;;;;35.00;23.10;;;16.60;65.10;;;18.53;34.20;98680.25;5036438;28;20040;-71
2022/12/21 09:50:48;;;;;;;31.90;21.52;;;16.70;65.00;;;18.60;34.13;98686.06;5037519;28;20403;-71
2022/12/21 09:53:22;;;;;;;29.48;19.75;;;16.60;65.10;;;18.62;34.33;98682.97;5040985;28;20537;-71
2022/12/21 09:55:52;;;;;;;34.33;21.67;;;16.70;65.50;;;18.65;34.11;98679.56;5034510;28;20060;-71
2022/12/21 09:58:28;;;;;;;31.98;21.08;;;16.70;65.20;;;18.65;34.19;98687.81;5012452;28;20094;-71
2022/12/21 10:01:12;;;;;;;32.38;21.20;;;16.80;64.90;;;18.66;34.08;98684.72;5031936;28;20044;-71
2022/12/21 10:04:06;;;;;;;28.17;21.63;;;16.80;64.90;;;18.63;34.04;98681.84;5046457;28;20463;-71
2022/12/21 10:06:50;;;;;;;26.15;19.80;;;16.80;64.70;;;18.68;34.02;98676.16;5062495;28;20071;-71
2022/12/21 10:09:40;;;;;;;28.60;20.25;;;16.70;65.10;;;18.66;34.18;98683.94;5064723;28;20044;-71
2022/12/21 10:12:42;;;;;;;33.08;21.30;;;16.70;65.50;;;18.67;34.02;98680.03;5064006;28;20067;-71
2022/12/21 10:15:31;;;;;;;31.95;20.40;;;16.80;65.20;;;18.66;34.18;98679.22;5037190;28;20045;-71
2022/12/21 10:18:37;;;;;;;30.55;20.05;;;16.90;64.80;;;18.66;33.87;98673.75;5051921;28;20080;-71
2022/12/21 10:21:32;;;;;;;32.15;21.30;;;16.80;64.90;;;18.68;34.14;98680.84;5029782;28;20032;-71
2022/12/21 10:23:58;;;;;;;34.85;20.77;;;16.80;64.90;;;18.70;33.96;98671.16;5054384;28;20389;-71
2022/12/21 10:26:26;;;;;;;30.38;19.48;;;16.80;65.20;;;18.75;34.23;98672.88;5031316;28;20044;-71
2022/12/21 10:29:00;;;;;;;28.65;20.30;;;16.80;65.30;;;18.72;34.15;98674.34;5036819;28;20055;-71
2022/12/21 10:31:43;;;;;;;29.27;21.05;;;16.90;64.90;;;18.73;33.96;98662.25;5048342;28;20040;-71
2022/12/21 10:34:26;;;;;;;30.35;19.77;;;16.90;64.60;;;18.67;34.15;98652.56;5035627;28;20120;-71
2022/12/21 10:36:56;;;;;;;28.80;19.70;;;16.90;64.80;;;18.69;33.83;98653.03;5050258;28;20531;-71
2022/12/21 10:39:22;;;;;;;29.77;19.85;;;16.80;64.70;;;18.72;34.20;98660.63;5018299;28;20041;-71
2022/12/21 10:42:19;;;;;;;26.35;18.92;;;16.90;64.90;;;18.69;34.25;98657.72;5048933;28;20443;-71